sensor_id;sensor_type;location;lat;lon;timestamp;P1;durP1;ratioP1;P2;durP2;ratioP2
34505;SDS011;20748;42.632;23.198;2023-06-14T00:01:45;9.82;;;5.10;;
34505;SDS011;20748;42.632;23.198;2023-06-14T00:04:17;10.70;;;4.50;;
34505;SDS011;20748;42.632;23.198;2023-06-14T00:06:52;16.67;;;5.45;;
34505;SDS011;20748;42.632;23.198;2023-06-14T00:09:25;9.27;;;5.15;;
34505;SDS011;20748;42.632;23.198;2023-06-14T00:11:57;8.05;;;4.20;;
34505;SDS011;20748;42.632;23.198;2023-06-14T00:14:30;10.98;;;5.10;;
34505;SDS011;20748;42.632;23.198;2023-06-14T00:17:02;10.30;;;5.22;;
34505;SDS011;20748;42.632;23.198;2023-06-14T00:19:35;10.13;;;5.00;;
34505;SDS011;20748;42.632;23.198;2023-06-14T00:22:08;11.90;;;6.30;;
34505;SDS011;20748;42.632;23.198;2023-06-14T00:24:41;10.80;;;4.63;;
34505;SDS011;20748;42.632;23.198;2023-06-14T00:27:13;16.88;;;6.88;;
34505;SDS011;20748;42.632;23.198;2023-06-14T00:29:46;18.67;;;6.50;;
34505;SDS011;20748;42.632;23.198;2023-06-14T00:32:19;14.00;;;5.70;;
34505;SDS011;20748;42.632;23.198;2023-06-14T00:34:56;26.33;;;8.02;;
34505;SDS011;20748;42.632;23.198;2023-06-14T00:37:28;16.42;;;6.97;;
34505;SDS011;20748;42.632;23.198;2023-06-14T00:40:00;16.08;;;7.40;;
34505;SDS011;20748;42.632;23.198;2023-06-14T00:42:33;13.10;;;6.28;;
34505;SDS011;20748;42.632;23.198;2023-06-14T00:45:06;16.95;;;6.68;;
34505;SDS011;20748;42.632;23.198;2023-06-14T00:47:40;12.93;;;5.30;;
34505;SDS011;20748;42.632;23.198;2023-06-14T00:50:14;16.23;;;6.55;;
34505;SDS011;20748;42.632;23.198;2023-06-14T00:52:47;15.27;;;6.43;;
34505;SDS011;20748;42.632;23.198;2023-06-14T00:55:19;15.95;;;6.63;;
34505;SDS011;20748;42.632;23.198;2023-06-14T00:57:53;12.90;;;6.22;;
34505;SDS011;20748;42.632;23.198;2023-06-14T01:00:26;12.93;;;5.75;;
34505;SDS011;20748;42.632;23.198;2023-06-14T01:03:12;14.68;;;5.75;;
34505;SDS011;20748;42.632;23.198;2023-06-14T01:05:46;13.27;;;5.50;;
34505;SDS011;20748;42.632;23.198;2023-06-14T01:08:23;14.25;;;6.65;;
34505;SDS011;20748;42.632;23.198;2023-06-14T01:11:02;15.10;;;6.30;;
34505;SDS011;20748;42.632;23.198;2023-06-14T01:13:39;12.73;;;5.72;;
34505;SDS011;20748;42.632;23.198;2023-06-14T01:16:18;16.33;;;6.03;;
34505;SDS011;20748;42.632;23.198;2023-06-14T01:18:52;14.52;;;6.85;;
34505;SDS011;20748;42.632;23.198;2023-06-14T01:21:28;12.85;;;4.80;;
34505;SDS011;20748;42.632;23.198;2023-06-14T01:24:01;12.07;;;5.78;;
34505;SDS011;20748;42.632;23.198;2023-06-14T01:26:35;10.75;;;4.63;;
34505;SDS011;20748;42.632;23.198;2023-06-14T01:29:09;13.88;;;5.97;;
34505;SDS011;20748;42.632;23.198;2023-06-14T01:31:42;9.88;;;5.45;;
34505;SDS011;20748;42.632;23.198;2023-06-14T01:34:16;13.48;;;5.95;;
34505;SDS011;20748;42.632;23.198;2023-06-14T01:36:49;14.40;;;5.38;;
34505;SDS011;20748;42.632;23.198;2023-06-14T01:39:23;10.48;;;5.20;;
34505;SDS011;20748;42.632;23.198;2023-06-14T01:41:56;7.97;;;3.92;;
34505;SDS011;20748;42.632;23.198;2023-06-14T01:44:29;7.82;;;4.15;;
34505;SDS011;20748;42.632;23.198;2023-06-14T01:47:05;7.57;;;3.53;;
34505;SDS011;20748;42.632;23.198;2023-06-14T01:49:38;7.05;;;3.80;;
34505;SDS011;20748;42.632;23.198;2023-06-14T01:52:11;20.42;;;6.15;;
34505;SDS011;20748;42.632;23.198;2023-06-14T01:54:44;9.05;;;3.88;;
34505;SDS011;20748;42.632;23.198;2023-06-14T01:57:16;12.80;;;4.18;;
34505;SDS011;20748;42.632;23.198;2023-06-14T01:59:49;8.88;;;4.63;;
34505;SDS011;20748;42.632;23.198;2023-06-14T02:02:22;10.75;;;4.75;;
34505;SDS011;20748;42.632;23.198;2023-06-14T02:04:54;8.77;;;4.57;;
34505;SDS011;20748;42.632;23.198;2023-06-14T02:07:29;7.38;;;3.50;;
34505;SDS011;20748;42.632;23.198;2023-06-14T02:10:02;6.75;;;3.22;;
34505;SDS011;20748;42.632;23.198;2023-06-14T02:12:35;7.60;;;3.88;;
34505;SDS011;20748;42.632;23.198;2023-06-14T02:15:08;5.63;;;3.20;;
34505;SDS011;20748;42.632;23.198;2023-06-14T02:17:41;5.85;;;3.17;;
34505;SDS011;20748;42.632;23.198;2023-06-14T02:20:15;6.55;;;3.53;;
34505;SDS011;20748;42.632;23.198;2023-06-14T02:22:48;6.63;;;3.38;;
34505;SDS011;20748;42.632;23.198;2023-06-14T02:25:21;5.22;;;2.90;;
34505;SDS011;20748;42.632;23.198;2023-06-14T02:27:53;12.70;;;7.10;;
34505;SDS011;20748;42.632;23.198;2023-06-14T02:30:26;5.78;;;3.35;;
34505;SDS011;20748;42.632;23.198;2023-06-14T02:33:01;7.90;;;3.33;;
34505;SDS011;20748;42.632;23.198;2023-06-14T02:35:34;7.10;;;3.28;;
34505;SDS011;20748;42.632;23.198;2023-06-14T02:38:07;7.90;;;4.20;;
34505;SDS011;20748;42.632;23.198;2023-06-14T02:40:40;7.45;;;3.05;;
34505;SDS011;20748;42.632;23.198;2023-06-14T02:43:13;6.40;;;3.00;;
34505;SDS011;20748;42.632;23.198;2023-06-14T02:45:46;7.63;;;3.95;;
34505;SDS011;20748;42.632;23.198;2023-06-14T02:48:18;5.88;;;3.40;;
34505;SDS011;20748;42.632;23.198;2023-06-14T02:50:51;7.72;;;3.92;;
34505;SDS011;20748;42.632;23.198;2023-06-14T02:53:23;8.20;;;4.43;;
34505;SDS011;20748;42.632;23.198;2023-06-14T02:55:56;6.82;;;3.58;;
34505;SDS011;20748;42.632;23.198;2023-06-14T02:58:29;14.32;;;7.07;;
34505;SDS011;20748;42.632;23.198;2023-06-14T03:01:02;9.23;;;3.95;;
34505;SDS011;20748;42.632;23.198;2023-06-14T03:03:35;7.13;;;4.13;;
34505;SDS011;20748;42.632;23.198;2023-06-14T03:06:08;6.85;;;3.80;;
34505;SDS011;20748;42.632;23.198;2023-06-14T03:08:47;7.15;;;3.45;;
34505;SDS011;20748;42.632;23.198;2023-06-14T03:11:21;6.30;;;3.03;;
34505;SDS011;20748;42.632;23.198;2023-06-14T03:13:54;7.00;;;2.95;;
34505;SDS011;20748;42.632;23.198;2023-06-14T03:16:29;5.43;;;2.75;;
34505;SDS011;20748;42.632;23.198;2023-06-14T03:19:04;5.85;;;3.33;;
34505;SDS011;20748;42.632;23.198;2023-06-14T03:21:38;7.90;;;3.30;;
34505;SDS011;20748;42.632;23.198;2023-06-14T03:24:14;6.40;;;3.13;;
34505;SDS011;20748;42.632;23.198;2023-06-14T03:26:49;6.13;;;3.70;;
34505;SDS011;20748;42.632;23.198;2023-06-14T03:29:22;6.40;;;3.45;;
34505;SDS011;20748;42.632;23.198;2023-06-14T03:31:58;5.50;;;2.85;;
34505;SDS011;20748;42.632;23.198;2023-06-14T03:34:39;4.25;;;2.38;;
34505;SDS011;20748;42.632;23.198;2023-06-14T03:37:17;5.60;;;3.13;;
34505;SDS011;20748;42.632;23.198;2023-06-14T03:39:51;5.13;;;2.78;;
34505;SDS011;20748;42.632;23.198;2023-06-14T03:42:28;5.82;;;2.97;;
34505;SDS011;20748;42.632;23.198;2023-06-14T03:45:01;5.22;;;2.38;;
34505;SDS011;20748;42.632;23.198;2023-06-14T03:47:33;4.32;;;2.13;;
34505;SDS011;20748;42.632;23.198;2023-06-14T03:50:07;5.43;;;2.70;;
34505;SDS011;20748;42.632;23.198;2023-06-14T03:52:40;4.75;;;2.63;;
34505;SDS011;20748;42.632;23.198;2023-06-14T03:55:15;6.55;;;3.47;;
34505;SDS011;20748;42.632;23.198;2023-06-14T03:57:52;6.53;;;3.25;;
34505;SDS011;20748;42.632;23.198;2023-06-14T04:00:24;7.80;;;3.50;;
34505;SDS011;20748;42.632;23.198;2023-06-14T04:02:56;6.07;;;3.22;;
34505;SDS011;20748;42.632;23.198;2023-06-14T04:05:29;6.88;;;3.78;;
34505;SDS011;20748;42.632;23.198;2023-06-14T04:08:02;6.40;;;3.33;;
34505;SDS011;20748;42.632;23.198;2023-06-14T04:10:36;8.38;;;3.40;;
34505;SDS011;20748;42.632;23.198;2023-06-14T04:13:09;7.60;;;3.50;;
34505;SDS011;20748;42.632;23.198;2023-06-14T04:15:44;4.82;;;2.72;;
34505;SDS011;20748;42.632;23.198;2023-06-14T04:18:21;8.60;;;4.90;;
34505;SDS011;20748;42.632;23.198;2023-06-14T04:20:56;5.50;;;3.08;;
34505;SDS011;20748;42.632;23.198;2023-06-14T04:23:28;8.88;;;4.45;;
34505;SDS011;20748;42.632;23.198;2023-06-14T04:26:01;6.05;;;3.70;;
34505;SDS011;20748;42.632;23.198;2023-06-14T04:28:34;8.02;;;3.60;;
34505;SDS011;20748;42.632;23.198;2023-06-14T04:31:13;10.80;;;4.30;;
34505;SDS011;20748;42.632;23.198;2023-06-14T04:33:46;6.82;;;3.85;;
34505;SDS011;20748;42.632;23.198;2023-06-14T04:36:25;9.40;;;3.78;;
34505;SDS011;20748;42.632;23.198;2023-06-14T04:39:00;6.25;;;3.25;;
34505;SDS011;20748;42.632;23.198;2023-06-14T04:41:36;7.15;;;3.65;;
34505;SDS011;20748;42.632;23.198;2023-06-14T04:44:09;8.60;;;4.00;;
34505;SDS011;20748;42.632;23.198;2023-06-14T04:46:46;6.55;;;3.30;;
34505;SDS011;20748;42.632;23.198;2023-06-14T04:49:27;6.05;;;3.17;;
34505;SDS011;20748;42.632;23.198;2023-06-14T04:52:03;6.13;;;3.13;;
34505;SDS011;20748;42.632;23.198;2023-06-14T04:54:40;7.25;;;4.30;;
34505;SDS011;20748;42.632;23.198;2023-06-14T04:57:14;8.70;;;4.22;;
34505;SDS011;20748;42.632;23.198;2023-06-14T04:59:51;7.35;;;4.22;;
34505;SDS011;20748;42.632;23.198;2023-06-14T05:02:27;9.65;;;3.78;;
34505;SDS011;20748;42.632;23.198;2023-06-14T05:05:00;7.22;;;3.92;;
34505;SDS011;20748;42.632;23.198;2023-06-14T05:07:33;7.75;;;4.20;;
34505;SDS011;20748;42.632;23.198;2023-06-14T05:10:06;7.43;;;3.85;;
34505;SDS011;20748;42.632;23.198;2023-06-14T05:12:40;7.03;;;3.90;;
34505;SDS011;20748;42.632;23.198;2023-06-14T05:15:16;7.75;;;3.97;;
34505;SDS011;20748;42.632;23.198;2023-06-14T05:17:49;8.20;;;3.80;;
34505;SDS011;20748;42.632;23.198;2023-06-14T05:20:26;8.27;;;4.40;;
34505;SDS011;20748;42.632;23.198;2023-06-14T05:22:58;10.57;;;5.07;;
34505;SDS011;20748;42.632;23.198;2023-06-14T05:25:31;7.25;;;3.60;;
34505;SDS011;20748;42.632;23.198;2023-06-14T05:28:03;8.30;;;5.05;;
34505;SDS011;20748;42.632;23.198;2023-06-14T05:30:37;5.88;;;3.83;;
34505;SDS011;20748;42.632;23.198;2023-06-14T05:33:10;7.85;;;3.72;;
34505;SDS011;20748;42.632;23.198;2023-06-14T05:35:43;5.95;;;3.45;;
34505;SDS011;20748;42.632;23.198;2023-06-14T05:38:15;7.60;;;3.35;;
34505;SDS011;20748;42.632;23.198;2023-06-14T05:40:48;6.43;;;3.42;;
34505;SDS011;20748;42.632;23.198;2023-06-14T05:43:20;7.57;;;4.10;;
34505;SDS011;20748;42.632;23.198;2023-06-14T05:45:53;7.47;;;4.03;;
34505;SDS011;20748;42.632;23.198;2023-06-14T05:48:25;9.18;;;3.55;;
34505;SDS011;20748;42.632;23.198;2023-06-14T05:50:58;6.85;;;3.83;;
34505;SDS011;20748;42.632;23.198;2023-06-14T05:53:31;7.82;;;4.38;;
34505;SDS011;20748;42.632;23.198;2023-06-14T05:56:03;8.07;;;4.10;;
34505;SDS011;20748;42.632;23.198;2023-06-14T05:58:36;8.40;;;4.20;;
34505;SDS011;20748;42.632;23.198;2023-06-14T06:01:09;7.07;;;3.92;;
34505;SDS011;20748;42.632;23.198;2023-06-14T06:03:41;10.30;;;4.65;;
34505;SDS011;20748;42.632;23.198;2023-06-14T06:06:17;8.88;;;4.38;;
34505;SDS011;20748;42.632;23.198;2023-06-14T06:08:49;7.78;;;4.35;;
34505;SDS011;20748;42.632;23.198;2023-06-14T06:11:21;9.00;;;4.47;;
34505;SDS011;20748;42.632;23.198;2023-06-14T06:13:54;7.95;;;4.65;;
34505;SDS011;20748;42.632;23.198;2023-06-14T06:16:27;9.05;;;4.95;;
34505;SDS011;20748;42.632;23.198;2023-06-14T06:18:59;8.27;;;4.68;;
34505;SDS011;20748;42.632;23.198;2023-06-14T06:21:32;8.05;;;4.30;;
34505;SDS011;20748;42.632;23.198;2023-06-14T06:24:04;8.57;;;4.47;;
34505;SDS011;20748;42.632;23.198;2023-06-14T06:26:37;9.63;;;4.85;;
34505;SDS011;20748;42.632;23.198;2023-06-14T06:29:11;7.40;;;4.53;;
34505;SDS011;20748;42.632;23.198;2023-06-14T06:31:44;8.75;;;5.55;;
34505;SDS011;20748;42.632;23.198;2023-06-14T06:34:17;8.75;;;5.35;;
34505;SDS011;20748;42.632;23.198;2023-06-14T06:36:49;8.30;;;4.43;;
34505;SDS011;20748;42.632;23.198;2023-06-14T06:39:22;10.88;;;4.68;;
34505;SDS011;20748;42.632;23.198;2023-06-14T06:41:54;8.57;;;4.53;;
34505;SDS011;20748;42.632;23.198;2023-06-14T06:44:36;10.18;;;4.82;;
34505;SDS011;20748;42.632;23.198;2023-06-14T06:47:09;7.00;;;4.00;;
34505;SDS011;20748;42.632;23.198;2023-06-14T06:49:42;9.20;;;4.45;;
34505;SDS011;20748;42.632;23.198;2023-06-14T06:52:15;9.55;;;6.32;;
34505;SDS011;20748;42.632;23.198;2023-06-14T06:54:47;8.43;;;5.20;;
34505;SDS011;20748;42.632;23.198;2023-06-14T06:57:22;7.70;;;4.57;;
34505;SDS011;20748;42.632;23.198;2023-06-14T06:59:54;9.52;;;4.28;;
34505;SDS011;20748;42.632;23.198;2023-06-14T07:02:27;9.25;;;4.53;;
34505;SDS011;20748;42.632;23.198;2023-06-14T07:04:59;10.55;;;5.13;;
34505;SDS011;20748;42.632;23.198;2023-06-14T07:07:33;8.68;;;4.97;;
34505;SDS011;20748;42.632;23.198;2023-06-14T07:10:06;11.35;;;5.43;;
34505;SDS011;20748;42.632;23.198;2023-06-14T07:12:39;7.43;;;4.22;;
34505;SDS011;20748;42.632;23.198;2023-06-14T07:15:12;9.32;;;5.50;;
34505;SDS011;20748;42.632;23.198;2023-06-14T07:17:46;7.65;;;4.18;;
34505;SDS011;20748;42.632;23.198;2023-06-14T07:20:18;7.15;;;3.97;;
34505;SDS011;20748;42.632;23.198;2023-06-14T07:22:53;7.38;;;4.00;;
34505;SDS011;20748;42.632;23.198;2023-06-14T07:25:25;7.93;;;5.13;;
34505;SDS011;20748;42.632;23.198;2023-06-14T07:27:58;7.45;;;4.55;;
34505;SDS011;20748;42.632;23.198;2023-06-14T07:30:30;6.47;;;4.45;;
34505;SDS011;20748;42.632;23.198;2023-06-14T07:33:03;7.70;;;5.55;;
34505;SDS011;20748;42.632;23.198;2023-06-14T07:35:36;7.90;;;4.55;;
34505;SDS011;20748;42.632;23.198;2023-06-14T07:38:08;10.43;;;5.60;;
34505;SDS011;20748;42.632;23.198;2023-06-14T07:40:41;7.93;;;4.78;;
34505;SDS011;20748;42.632;23.198;2023-06-14T07:43:13;8.27;;;4.55;;
34505;SDS011;20748;42.632;23.198;2023-06-14T07:45:46;10.88;;;5.25;;
34505;SDS011;20748;42.632;23.198;2023-06-14T07:48:38;9.88;;;4.75;;
34505;SDS011;20748;42.632;23.198;2023-06-14T07:51:11;7.47;;;4.18;;
34505;SDS011;20748;42.632;23.198;2023-06-14T07:53:43;7.60;;;4.75;;
34505;SDS011;20748;42.632;23.198;2023-06-14T07:56:16;7.65;;;4.40;;
34505;SDS011;20748;42.632;23.198;2023-06-14T07:58:48;8.25;;;4.78;;
34505;SDS011;20748;42.632;23.198;2023-06-14T08:01:20;8.45;;;5.13;;
34505;SDS011;20748;42.632;23.198;2023-06-14T08:03:56;8.30;;;5.15;;
34505;SDS011;20748;42.632;23.198;2023-06-14T08:06:28;8.57;;;4.82;;
34505;SDS011;20748;42.632;23.198;2023-06-14T08:09:01;8.23;;;4.82;;
34505;SDS011;20748;42.632;23.198;2023-06-14T08:11:34;9.35;;;5.03;;
34505;SDS011;20748;42.632;23.198;2023-06-14T08:14:08;7.70;;;4.45;;
34505;SDS011;20748;42.632;23.198;2023-06-14T08:16:41;7.60;;;4.57;;
34505;SDS011;20748;42.632;23.198;2023-06-14T08:19:14;8.07;;;4.68;;
34505;SDS011;20748;42.632;23.198;2023-06-14T08:21:47;7.82;;;4.85;;
34505;SDS011;20748;42.632;23.198;2023-06-14T08:24:20;8.57;;;5.20;;
34505;SDS011;20748;42.632;23.198;2023-06-14T08:26:55;7.53;;;4.35;;
34505;SDS011;20748;42.632;23.198;2023-06-14T08:29:29;7.55;;;4.85;;
34505;SDS011;20748;42.632;23.198;2023-06-14T08:32:02;10.10;;;4.43;;
34505;SDS011;20748;42.632;23.198;2023-06-14T08:34:35;7.28;;;4.47;;
34505;SDS011;20748;42.632;23.198;2023-06-14T08:37:08;12.23;;;5.35;;
34505;SDS011;20748;42.632;23.198;2023-06-14T08:39:40;8.00;;;4.53;;
34505;SDS011;20748;42.632;23.198;2023-06-14T08:42:13;7.63;;;5.07;;
34505;SDS011;20748;42.632;23.198;2023-06-14T08:47:35;6.95;;;4.30;;
34505;SDS011;20748;42.632;23.198;2023-06-14T08:50:14;7.22;;;4.80;;
34505;SDS011;20748;42.632;23.198;2023-06-14T08:53:00;7.15;;;4.30;;
34505;SDS011;20748;42.632;23.198;2023-06-14T08:55:33;7.07;;;3.70;;
34505;SDS011;20748;42.632;23.198;2023-06-14T08:58:13;7.20;;;4.40;;
34505;SDS011;20748;42.632;23.198;2023-06-14T09:00:47;6.43;;;4.28;;
34505;SDS011;20748;42.632;23.198;2023-06-14T09:03:20;7.65;;;4.78;;
34505;SDS011;20748;42.632;23.198;2023-06-14T09:05:53;7.25;;;4.97;;
34505;SDS011;20748;42.632;23.198;2023-06-14T09:08:25;8.02;;;4.43;;
34505;SDS011;20748;42.632;23.198;2023-06-14T09:11:01;6.20;;;4.15;;
34505;SDS011;20748;42.632;23.198;2023-06-14T09:13:34;8.23;;;4.57;;
34505;SDS011;20748;42.632;23.198;2023-06-14T09:16:06;7.80;;;4.88;;
34505;SDS011;20748;42.632;23.198;2023-06-14T09:18:40;9.82;;;5.82;;
34505;SDS011;20748;42.632;23.198;2023-06-14T09:21:16;9.25;;;4.50;;
34505;SDS011;20748;42.632;23.198;2023-06-14T09:23:49;7.00;;;4.15;;
34505;SDS011;20748;42.632;23.198;2023-06-14T09:26:21;7.50;;;5.13;;
34505;SDS011;20748;42.632;23.198;2023-06-14T09:28:55;9.95;;;5.45;;
34505;SDS011;20748;42.632;23.198;2023-06-14T09:31:27;8.55;;;4.88;;
34505;SDS011;20748;42.632;23.198;2023-06-14T09:34:03;7.30;;;3.95;;
34505;SDS011;20748;42.632;23.198;2023-06-14T09:36:36;9.38;;;5.85;;
34505;SDS011;20748;42.632;23.198;2023-06-14T09:39:08;13.05;;;5.45;;
34505;SDS011;20748;42.632;23.198;2023-06-14T09:41:41;8.77;;;5.50;;
34505;SDS011;20748;42.632;23.198;2023-06-14T09:44:14;7.22;;;4.85;;
34505;SDS011;20748;42.632;23.198;2023-06-14T09:46:53;8.30;;;5.18;;
34505;SDS011;20748;42.632;23.198;2023-06-14T09:49:27;8.82;;;5.35;;
34505;SDS011;20748;42.632;23.198;2023-06-14T09:52:05;9.27;;;5.50;;
34505;SDS011;20748;42.632;23.198;2023-06-14T09:54:42;8.57;;;5.35;;
34505;SDS011;20748;42.632;23.198;2023-06-14T09:57:20;8.48;;;5.57;;
34505;SDS011;20748;42.632;23.198;2023-06-14T09:59:55;8.25;;;5.25;;
34505;SDS011;20748;42.632;23.198;2023-06-14T10:02:31;8.95;;;5.63;;
34505;SDS011;20748;42.632;23.198;2023-06-14T10:05:09;8.52;;;5.35;;
34505;SDS011;20748;42.632;23.198;2023-06-14T10:07:48;10.43;;;5.97;;
34505;SDS011;20748;42.632;23.198;2023-06-14T10:10:23;10.10;;;6.03;;
34505;SDS011;20748;42.632;23.198;2023-06-14T10:12:55;10.60;;;6.07;;
34505;SDS011;20748;42.632;23.198;2023-06-14T10:15:29;12.40;;;6.47;;
34505;SDS011;20748;42.632;23.198;2023-06-14T10:18:07;10.48;;;5.88;;
34505;SDS011;20748;42.632;23.198;2023-06-14T10:20:53;9.95;;;5.50;;
34505;SDS011;20748;42.632;23.198;2023-06-14T10:23:34;8.77;;;5.85;;
34505;SDS011;20748;42.632;23.198;2023-06-14T10:26:13;7.55;;;5.35;;
34505;SDS011;20748;42.632;23.198;2023-06-14T10:28:58;9.50;;;6.10;;
34505;SDS011;20748;42.632;23.198;2023-06-14T10:31:40;9.13;;;5.40;;
34505;SDS011;20748;42.632;23.198;2023-06-14T10:34:20;10.43;;;5.50;;
34505;SDS011;20748;42.632;23.198;2023-06-14T10:37:02;8.38;;;5.07;;
34505;SDS011;20748;42.632;23.198;2023-06-14T10:39:37;8.55;;;5.35;;
34505;SDS011;20748;42.632;23.198;2023-06-14T10:42:11;10.15;;;5.75;;
34505;SDS011;20748;42.632;23.198;2023-06-14T10:44:45;12.57;;;6.47;;
34505;SDS011;20748;42.632;23.198;2023-06-14T10:47:22;12.10;;;6.35;;
34505;SDS011;20748;42.632;23.198;2023-06-14T10:50:02;10.82;;;6.90;;
34505;SDS011;20748;42.632;23.198;2023-06-14T10:52:38;10.77;;;6.82;;
34505;SDS011;20748;42.632;23.198;2023-06-14T10:55:12;14.68;;;7.55;;
34505;SDS011;20748;42.632;23.198;2023-06-14T10:57:47;11.18;;;7.35;;
34505;SDS011;20748;42.632;23.198;2023-06-14T11:00:25;10.57;;;6.72;;
34505;SDS011;20748;42.632;23.198;2023-06-14T11:03:15;9.38;;;6.35;;
34505;SDS011;20748;42.632;23.198;2023-06-14T11:06:13;12.43;;;7.68;;
34505;SDS011;20748;42.632;23.198;2023-06-14T11:11:51;11.70;;;6.88;;
34505;SDS011;20748;42.632;23.198;2023-06-14T11:14:29;13.88;;;6.63;;
34505;SDS011;20748;42.632;23.198;2023-06-14T11:17:02;13.10;;;7.32;;
34505;SDS011;20748;42.632;23.198;2023-06-14T11:19:35;12.68;;;6.38;;
34505;SDS011;20748;42.632;23.198;2023-06-14T11:22:07;10.23;;;6.38;;
34505;SDS011;20748;42.632;23.198;2023-06-14T11:24:42;10.57;;;7.05;;
34505;SDS011;20748;42.632;23.198;2023-06-14T11:27:15;11.85;;;6.75;;
34505;SDS011;20748;42.632;23.198;2023-06-14T11:29:48;10.43;;;6.32;;
34505;SDS011;20748;42.632;23.198;2023-06-14T11:32:21;9.63;;;6.25;;
34505;SDS011;20748;42.632;23.198;2023-06-14T11:34:53;11.48;;;5.60;;
34505;SDS011;20748;42.632;23.198;2023-06-14T11:37:26;9.38;;;5.82;;
34505;SDS011;20748;42.632;23.198;2023-06-14T11:40:01;9.85;;;6.07;;
34505;SDS011;20748;42.632;23.198;2023-06-14T11:42:35;11.02;;;6.72;;
34505;SDS011;20748;42.632;23.198;2023-06-14T11:45:09;8.65;;;5.30;;
34505;SDS011;20748;42.632;23.198;2023-06-14T11:47:43;10.18;;;5.75;;
34505;SDS011;20748;42.632;23.198;2023-06-14T11:50:15;14.50;;;6.72;;
34505;SDS011;20748;42.632;23.198;2023-06-14T11:52:51;9.70;;;6.63;;
34505;SDS011;20748;42.632;23.198;2023-06-14T11:55:24;8.20;;;5.40;;
34505;SDS011;20748;42.632;23.198;2023-06-14T11:57:58;9.52;;;5.70;;
34505;SDS011;20748;42.632;23.198;2023-06-14T12:00:30;8.10;;;5.43;;
34505;SDS011;20748;42.632;23.198;2023-06-14T12:03:03;7.43;;;4.60;;
34505;SDS011;20748;42.632;23.198;2023-06-14T12:05:35;8.68;;;5.13;;
34505;SDS011;20748;42.632;23.198;2023-06-14T12:08:08;8.10;;;4.75;;
34505;SDS011;20748;42.632;23.198;2023-06-14T12:10:41;9.52;;;5.35;;
34505;SDS011;20748;42.632;23.198;2023-06-14T12:13:17;6.15;;;4.32;;
34505;SDS011;20748;42.632;23.198;2023-06-14T12:15:54;7.07;;;4.82;;
34505;SDS011;20748;42.632;23.198;2023-06-14T12:18:33;7.20;;;4.50;;
34505;SDS011;20748;42.632;23.198;2023-06-14T12:21:07;7.70;;;4.38;;
34505;SDS011;20748;42.632;23.198;2023-06-14T12:23:45;7.13;;;4.72;;
34505;SDS011;20748;42.632;23.198;2023-06-14T12:26:18;7.07;;;4.22;;
34505;SDS011;20748;42.632;23.198;2023-06-14T12:28:52;6.63;;;4.45;;
34505;SDS011;20748;42.632;23.198;2023-06-14T12:31:25;8.68;;;4.70;;
34505;SDS011;20748;42.632;23.198;2023-06-14T12:33:58;8.90;;;4.78;;
34505;SDS011;20748;42.632;23.198;2023-06-14T12:36:30;8.60;;;5.60;;
34505;SDS011;20748;42.632;23.198;2023-06-14T12:39:03;7.18;;;4.78;;
34505;SDS011;20748;42.632;23.198;2023-06-14T12:41:35;6.68;;;4.47;;
34505;SDS011;20748;42.632;23.198;2023-06-14T12:44:09;7.32;;;4.78;;
34505;SDS011;20748;42.632;23.198;2023-06-14T12:46:42;6.97;;;4.43;;
34505;SDS011;20748;42.632;23.198;2023-06-14T12:49:15;8.18;;;4.50;;
34505;SDS011;20748;42.632;23.198;2023-06-14T12:51:47;6.20;;;4.22;;
34505;SDS011;20748;42.632;23.198;2023-06-14T12:54:20;7.35;;;4.60;;
34505;SDS011;20748;42.632;23.198;2023-06-14T12:57:11;7.15;;;4.00;;
34505;SDS011;20748;42.632;23.198;2023-06-14T12:59:44;7.55;;;4.03;;
34505;SDS011;20748;42.632;23.198;2023-06-14T13:02:17;7.82;;;4.72;;
34505;SDS011;20748;42.632;23.198;2023-06-14T13:04:55;5.40;;;3.80;;
34505;SDS011;20748;42.632;23.198;2023-06-14T13:07:29;6.03;;;3.78;;
34505;SDS011;20748;42.632;23.198;2023-06-14T13:10:02;8.65;;;4.07;;
34505;SDS011;20748;42.632;23.198;2023-06-14T13:12:36;6.20;;;3.30;;
34505;SDS011;20748;42.632;23.198;2023-06-14T13:15:09;6.30;;;4.05;;
34505;SDS011;20748;42.632;23.198;2023-06-14T13:17:42;6.18;;;3.95;;
34505;SDS011;20748;42.632;23.198;2023-06-14T13:20:19;6.38;;;3.75;;
34505;SDS011;20748;42.632;23.198;2023-06-14T13:22:52;5.50;;;3.72;;
34505;SDS011;20748;42.632;23.198;2023-06-14T13:25:25;8.15;;;5.20;;
34505;SDS011;20748;42.632;23.198;2023-06-14T13:27:57;7.15;;;4.28;;
34505;SDS011;20748;42.632;23.198;2023-06-14T13:30:30;11.57;;;4.95;;
34505;SDS011;20748;42.632;23.198;2023-06-14T13:33:03;7.97;;;4.95;;
34505;SDS011;20748;42.632;23.198;2023-06-14T13:35:35;6.97;;;4.10;;
34505;SDS011;20748;42.632;23.198;2023-06-14T13:38:09;7.20;;;4.05;;
34505;SDS011;20748;42.632;23.198;2023-06-14T13:40:42;8.57;;;4.50;;
34505;SDS011;20748;42.632;23.198;2023-06-14T13:43:14;7.95;;;5.10;;
34505;SDS011;20748;42.632;23.198;2023-06-14T13:45:47;7.53;;;4.55;;
34505;SDS011;20748;42.632;23.198;2023-06-14T13:48:20;7.47;;;4.45;;
34505;SDS011;20748;42.632;23.198;2023-06-14T13:50:54;5.88;;;3.72;;
34505;SDS011;20748;42.632;23.198;2023-06-14T13:53:27;7.18;;;4.78;;
34505;SDS011;20748;42.632;23.198;2023-06-14T13:55:59;8.48;;;5.43;;
34505;SDS011;20748;42.632;23.198;2023-06-14T13:58:31;7.80;;;4.40;;
34505;SDS011;20748;42.632;23.198;2023-06-14T14:01:05;8.55;;;4.80;;
34505;SDS011;20748;42.632;23.198;2023-06-14T14:03:37;6.43;;;4.40;;
34505;SDS011;20748;42.632;23.198;2023-06-14T14:06:09;6.55;;;4.22;;
34505;SDS011;20748;42.632;23.198;2023-06-14T14:08:42;9.18;;;5.07;;
34505;SDS011;20748;42.632;23.198;2023-06-14T14:11:15;5.70;;;4.40;;
34505;SDS011;20748;42.632;23.198;2023-06-14T14:13:48;7.32;;;4.95;;
34505;SDS011;20748;42.632;23.198;2023-06-14T14:16:21;8.20;;;5.55;;
34505;SDS011;20748;42.632;23.198;2023-06-14T14:18:54;7.70;;;4.90;;
34505;SDS011;20748;42.632;23.198;2023-06-14T14:21:27;8.32;;;4.72;;
34505;SDS011;20748;42.632;23.198;2023-06-14T14:23:59;7.28;;;4.90;;
34505;SDS011;20748;42.632;23.198;2023-06-14T14:26:32;5.88;;;4.15;;
34505;SDS011;20748;42.632;23.198;2023-06-14T14:29:04;6.85;;;4.75;;
34505;SDS011;20748;42.632;23.198;2023-06-14T14:31:37;7.45;;;4.75;;
34505;SDS011;20748;42.632;23.198;2023-06-14T14:34:10;7.25;;;5.07;;
34505;SDS011;20748;42.632;23.198;2023-06-14T14:36:43;7.57;;;4.28;;
34505;SDS011;20748;42.632;23.198;2023-06-14T14:39:15;9.00;;;4.78;;
34505;SDS011;20748;42.632;23.198;2023-06-14T14:41:48;9.85;;;4.38;;
34505;SDS011;20748;42.632;23.198;2023-06-14T14:44:21;6.50;;;4.07;;
34505;SDS011;20748;42.632;23.198;2023-06-14T14:46:54;6.07;;;3.67;;
34505;SDS011;20748;42.632;23.198;2023-06-14T14:49:27;5.50;;;3.90;;
34505;SDS011;20748;42.632;23.198;2023-06-14T14:51:59;6.97;;;4.40;;
34505;SDS011;20748;42.632;23.198;2023-06-14T14:54:52;6.45;;;3.63;;
34505;SDS011;20748;42.632;23.198;2023-06-14T14:57:25;8.27;;;4.30;;
34505;SDS011;20748;42.632;23.198;2023-06-14T14:59:57;5.60;;;3.85;;
34505;SDS011;20748;42.632;23.198;2023-06-14T15:02:30;5.88;;;3.35;;
34505;SDS011;20748;42.632;23.198;2023-06-14T15:05:03;4.93;;;3.15;;
34505;SDS011;20748;42.632;23.198;2023-06-14T15:07:36;5.72;;;3.17;;
34505;SDS011;20748;42.632;23.198;2023-06-14T15:10:08;4.68;;;3.40;;
34505;SDS011;20748;42.632;23.198;2023-06-14T15:12:41;4.93;;;3.03;;
34505;SDS011;20748;42.632;23.198;2023-06-14T15:15:13;4.65;;;3.17;;
34505;SDS011;20748;42.632;23.198;2023-06-14T15:17:46;4.03;;;2.97;;